Time;durP1;ratioP1;P1;durP2;ratioP2;P2;SDS_P1;SDS_P2;PMS_P1;PMS_P2;Temp;Humidity;BMP_temperature;BMP_pressure;BME280_temperature;BME280_humidity;BME280_pressure;Samples;Min_cycle;Max_cycle;Signal;HPM_P1;HPM_P2
2022/06/28 00:00:19;;;;;;;3.07;1.70;;;13.80;99.90;;;;;;5070580;28;20198;-60
2022/06/28 00:02:50;;;;;;;3.37;1.70;;;13.80;99.90;;;;;;5069628;28;20594;-60
2022/06/28 00:05:18;;;;;;;3.30;1.57;;;13.80;99.90;;;;;;5072580;28;20241;-60
2022/06/28 00:07:47;;;;;;;2.30;1.50;;;13.90;99.90;;;;;;5072672;28;20814;-60
2022/06/28 00:10:16;;;;;;;3.63;1.40;;;13.90;99.90;;;;;;5068893;28;20188;-60
2022/06/28 00:12:46;;;;;;;3.00;1.50;;;13.90;99.90;;;;;;5069206;28;20280;-60
2022/06/28 00:18:01;;;;;;;4.17;1.40;;;14.00;99.90;;;;;;5071821;28;20284;-60
2022/06/28 00:20:30;;;;;;;5.33;2.10;;;14.00;99.90;;;;;;5067872;28;20198;-59
2022/06/28 00:22:59;;;;;;;1.63;1.50;;;14.00;99.90;;;;;;5069482;28;20301;-60
2022/06/28 00:25:27;;;;;;;4.97;1.60;;;14.00;99.90;;;;;;5067687;28;20316;-60
2022/06/28 00:27:57;;;;;;;4.47;1.70;;;14.00;99.90;;;;;;5070118;28;20235;-59
2022/06/28 00:30:25;;;;;;;2.90;1.57;;;14.00;99.90;;;;;;5069605;28;20279;-60
2022/06/28 00:32:54;;;;;;;4.03;1.70;;;14.00;99.90;;;;;;5068005;28;20207;-60
2022/06/28 00:35:24;;;;;;;3.20;1.60;;;14.00;99.90;;;;;;5071017;28;20227;-60
2022/06/28 00:37:52;;;;;;;3.23;1.93;;;14.10;99.90;;;;;;5070941;28;20671;-59
2022/06/28 00:40:21;;;;;;;2.33;1.53;;;14.00;99.90;;;;;;5070240;28;20271;-60
2022/06/28 00:42:50;;;;;;;6.80;1.60;;;14.00;99.90;;;;;;5087423;28;20208;-60
2022/06/28 00:45:20;;;;;;;1.60;1.50;;;14.00;99.90;;;;;;5062637;28;20551;-60
2022/06/28 00:47:49;;;;;;;3.30;1.70;;;14.00;99.90;;;;;;5064183;28;20188;-60
2022/06/28 00:50:19;;;;;;;3.83;1.60;;;14.00;99.90;;;;;;5071965;28;20193;-60
2022/06/28 00:53:00;;;;;;;7.50;1.63;;;13.90;99.90;;;;;;5057516;28;20232;-59
2022/06/28 00:55:29;;;;;;;2.73;1.77;;;13.90;99.90;;;;;;5071362;28;20196;-60
2022/06/28 00:57:57;;;;;;;1.97;1.50;;;13.90;99.90;;;;;;5061413;28;20274;-59
2022/06/28 01:00:27;;;;;;;2.77;1.60;;;13.90;99.90;;;;;;5071118;28;20279;-60
2022/06/28 01:02:55;;;;;;;2.30;1.60;;;14.00;99.90;;;;;;5070151;28;20267;-59
2022/06/28 01:05:24;;;;;;;2.10;1.33;;;14.00;99.90;;;;;;5071566;28;20212;-60
2022/06/28 01:07:53;;;;;;;3.73;1.23;;;14.00;99.90;;;;;;5070919;28;20200;-60
2022/06/28 01:10:23;;;;;;;6.53;1.60;;;14.10;99.90;;;;;;5071513;28;20219;-60
2022/06/28 01:12:51;;;;;;;3.30;1.57;;;14.10;99.90;;;;;;5070066;28;20283;-59
2022/06/28 01:15:19;;;;;;;3.50;1.70;;;14.10;99.90;;;;;;5071691;28;20188;-59
2022/06/28 01:17:50;;;;;;;2.13;1.50;;;14.10;99.90;;;;;;5064740;28;20203;-60
2022/06/28 01:20:18;;;;;;;3.27;1.57;;;14.10;99.90;;;;;;5068401;28;20188;-60
2022/06/28 01:22:48;;;;;;;3.13;1.73;;;14.10;99.90;;;;;;5072249;28;20224;-60
2022/06/28 01:25:17;;;;;;;2.03;1.37;;;14.20;99.90;;;;;;5068461;28;20193;-60
2022/06/28 01:27:46;;;;;;;2.63;1.67;;;14.20;99.90;;;;;;5073864;28;20623;-60
2022/06/28 01:30:15;;;;;;;3.50;1.60;;;14.20;99.90;;;;;;5073172;28;20192;-60
2022/06/28 01:32:44;;;;;;;1.63;1.40;;;14.20;99.90;;;;;;5071382;28;20722;-60
2022/06/28 01:35:12;;;;;;;2.43;1.40;;;14.20;99.90;;;;;;5064568;28;20264;-60
2022/06/28 01:37:41;;;;;;;5.30;1.73;;;14.20;99.90;;;;;;5075144;28;20210;-59
2022/06/28 01:40:12;;;;;;;3.80;1.70;;;14.10;99.90;;;;;;5074955;28;20283;-60
2022/06/28 01:42:40;;;;;;;2.43;1.70;;;14.00;99.90;;;;;;5074824;28;20275;-60
2022/06/28 01:45:10;;;;;;;3.07;1.70;;;13.90;99.90;;;;;;5075189;28;20234;-59
2022/06/28 01:47:44;;;;;;;3.97;1.50;;;13.90;99.90;;;;;;5071607;28;20196;-60
2022/06/28 01:50:13;;;;;;;3.90;1.50;;;13.80;99.90;;;;;;5070684;28;20647;-60
2022/06/28 01:52:43;;;;;;;4.20;1.90;;;13.80;99.90;;;;;;5072440;28;20242;-59
2022/06/28 01:55:13;;;;;;;2.73;1.50;;;13.70;99.90;;;;;;5072623;28;20276;-60
2022/06/28 01:57:42;;;;;;;2.93;1.53;;;13.70;99.90;;;;;;5072505;28;20194;-60
2022/06/28 02:00:11;;;;;;;2.80;1.67;;;13.60;99.90;;;;;;5072810;28;20231;-60
2022/06/28 02:02:40;;;;;;;3.93;1.70;;;13.60;99.90;;;;;;5072424;28;20231;-59
2022/06/28 02:05:10;;;;;;;5.23;1.73;;;13.50;99.90;;;;;;5074266;28;20292;-60
2022/06/28 02:07:58;;;;;;;3.97;1.63;;;13.50;99.90;;;;;;5068145;28;20275;-60
2022/06/28 02:10:28;;;;;;;2.77;1.57;;;13.40;99.90;;;;;;5068534;28;20192;-59
2022/06/28 02:12:57;;;;;;;1.90;1.70;;;13.30;99.90;;;;;;5074916;28;20651;-60
2022/06/28 02:15:26;;;;;;;1.93;1.80;;;13.30;99.90;;;;;;5074694;28;20196;-60
2022/06/28 02:17:58;;;;;;;1.87;1.60;;;13.20;99.90;;;;;;5065654;28;20284;-59
2022/06/28 02:20:28;;;;;;;3.20;1.67;;;13.20;99.90;;;;;;5068550;28;20192;-59
2022/06/28 02:22:56;;;;;;;2.27;1.80;;;13.10;99.90;;;;;;5064215;28;20192;-60
2022/06/28 02:25:25;;;;;;;3.83;1.80;;;13.10;99.90;;;;;;5068059;28;20221;-60
2022/06/28 02:27:54;;;;;;;5.60;1.90;;;13.10;99.90;;;;;;5062682;28;20200;-59
2022/06/28 02:30:23;;;;;;;2.87;1.80;;;13.00;99.90;;;;;;5074506;28;20282;-59
2022/06/28 02:32:52;;;;;;;3.33;1.70;;;13.00;99.90;;;;;;5072844;28;20220;-59
2022/06/28 02:40:52;;;;;;;3.30;1.73;;;12.90;99.90;;;;;;5071702;28;20706;-59
2022/06/28 02:43:21;;;;;;;2.30;1.90;;;12.90;99.90;;;;;;5073293;28;20200;-59
2022/06/28 02:45:50;;;;;;;2.63;1.93;;;12.90;99.90;;;;;;5072798;28;20669;-59
2022/06/28 02:48:19;;;;;;;3.10;1.93;;;12.80;99.90;;;;;;5073993;28;20593;-60
2022/06/28 02:50:47;;;;;;;5.97;2.03;;;12.80;99.90;;;;;;5063225;28;20613;-59
2022/06/28 02:53:16;;;;;;;5.13;1.70;;;12.80;99.90;;;;;;5072406;28;20196;-60
2022/06/28 02:55:44;;;;;;;2.73;1.57;;;12.80;99.90;;;;;;5071861;28;20610;-60
2022/06/28 02:58:13;;;;;;;2.27;2.03;;;12.80;99.90;;;;;;5072942;28;20247;-59
2022/06/28 03:00:43;;;;;;;7.27;2.20;;;12.70;99.90;;;;;;5072635;28;20227;-59
2022/06/28 03:03:16;;;;;;;1.97;1.87;;;12.80;99.90;;;;;;5072914;28;20452;-59
2022/06/28 03:05:44;;;;;;;3.87;1.87;;;12.70;99.90;;;;;;5071837;28;20208;-60
2022/06/28 03:08:12;;;;;;;2.70;2.20;;;12.70;99.90;;;;;;5085239;28;20216;-59
2022/06/28 03:10:41;;;;;;;4.23;2.40;;;12.60;99.90;;;;;;5071936;28;20203;-59
2022/06/28 03:13:10;;;;;;;6.00;2.03;;;12.60;99.90;;;;;;5063176;28;20193;-59
2022/06/28 03:15:38;;;;;;;4.73;2.27;;;12.60;99.90;;;;;;5066377;28;20583;-59
2022/06/28 03:18:08;;;;;;;4.10;2.27;;;12.60;99.90;;;;;;5071431;28;20184;-59
2022/06/28 03:20:36;;;;;;;6.90;1.97;;;12.60;99.90;;;;;;5073374;28;20203;-59
2022/06/28 03:23:05;;;;;;;5.93;2.17;;;12.60;99.90;;;;;;5072541;28;20271;-59
2022/06/28 03:25:40;;;;;;;3.17;1.90;;;12.50;99.90;;;;;;5076677;28;20807;-59
2022/06/28 03:28:08;;;;;;;5.97;2.10;;;12.60;99.90;;;;;;5068037;28;20223;-59
2022/06/28 03:30:37;;;;;;;4.87;2.40;;;12.60;99.90;;;;;;5071914;28;20679;-60
2022/06/28 03:33:06;;;;;;;2.73;2.07;;;12.60;99.90;;;;;;5072652;28;20275;-60
2022/06/28 03:35:36;;;;;;;8.30;2.30;;;12.50;99.90;;;;;;5067681;28;20275;-59
2022/06/28 03:38:07;;;;;;;2.80;2.07;;;12.50;99.90;;;;;;5058638;28;20275;-59
2022/06/28 03:40:36;;;;;;;3.03;1.90;;;12.40;99.90;;;;;;5071919;28;20215;-59
2022/06/28 03:43:06;;;;;;;4.50;2.17;;;12.40;99.90;;;;;;5069820;28;20276;-59
2022/06/28 03:45:34;;;;;;;6.57;2.60;;;12.40;99.90;;;;;;5072252;28;20596;-59
2022/06/28 03:48:03;;;;;;;8.87;2.43;;;12.40;99.90;;;;;;5067982;28;20300;-59
2022/06/28 03:50:31;;;;;;;4.43;2.10;;;12.40;99.90;;;;;;5070175;28;20215;-59
2022/06/28 03:53:04;;;;;;;6.73;2.00;;;12.40;99.90;;;;;;5070886;28;20226;-59
2022/06/28 03:55:33;;;;;;;9.03;2.80;;;12.40;99.90;;;;;;5072434;28;20615;-59
2022/06/28 03:58:01;;;;;;;4.50;2.00;;;12.40;99.90;;;;;;5072152;28;20707;-59
2022/06/28 04:00:30;;;;;;;3.17;2.20;;;12.40;99.90;;;;;;5067570;28;20192;-59
2022/06/28 04:03:16;;;;;;;6.27;2.50;;;12.40;99.90;;;;;;5071428;28;20220;-59
2022/06/28 04:06:24;;;;;;;6.40;2.90;;;12.40;99.90;;;;;;5071423;28;20231;-59
2022/06/28 04:08:56;;;;;;;3.43;2.43;;;12.40;99.90;;;;;;5069926;28;20192;-59
2022/06/28 04:11:25;;;;;;;5.30;2.43;;;12.30;99.90;;;;;;5071349;28;20204;-59
2022/06/28 04:13:55;;;;;;;6.27;2.33;;;12.40;99.90;;;;;;5070579;28;20196;-59
2022/06/28 04:16:24;;;;;;;6.43;2.50;;;12.30;99.90;;;;;;5071561;28;20305;-59
2022/06/28 04:18:53;;;;;;;9.37;3.13;;;12.40;99.90;;;;;;5071064;28;20198;-59
2022/06/28 04:21:22;;;;;;;3.37;2.40;;;12.40;99.90;;;;;;5071981;28;20279;-59
2022/06/28 04:23:50;;;;;;;3.40;2.70;;;12.40;99.90;;;;;;5070771;28;20280;-59
2022/06/28 04:26:20;;;;;;;4.40;2.60;;;12.40;99.90;;;;;;5064096;28;20291;-59
2022/06/28 04:28:49;;;;;;;5.23;2.73;;;12.40;99.90;;;;;;5066284;28;20651;-59
2022/06/28 04:31:17;;;;;;;4.23;2.67;;;12.40;99.90;;;;;;5081832;28;20215;-59
2022/06/28 04:33:46;;;;;;;2.83;2.47;;;12.40;99.90;;;;;;5067065;28;20211;-59
2022/06/28 04:36:14;;;;;;;5.80;2.90;;;12.50;99.90;;;;;;5067590;28;20275;-59
2022/06/28 04:38:43;;;;;;;4.67;2.90;;;12.50;99.90;;;;;;5062831;28;20220;-59
2022/06/28 04:41:11;;;;;;;3.53;2.60;;;12.50;99.90;;;;;;5067817;28;20275;-59
2022/06/28 04:43:41;;;;;;;3.30;2.73;;;12.60;99.90;;;;;;5071668;28;20651;-59
2022/06/28 04:46:09;;;;;;;4.97;2.70;;;12.60;99.90;;;;;;5061948;28;20770;-60
2022/06/28 04:48:38;;;;;;;7.13;3.33;;;12.70;99.90;;;;;;5071781;28;20215;-59
2022/06/28 04:51:11;;;;;;;4.87;3.47;;;12.80;99.90;;;;;;5070052;28;20216;-59
2022/06/28 04:53:41;;;;;;;3.37;2.93;;;12.80;99.90;;;;;;5062861;28;20254;-59
2022/06/28 04:56:11;;;;;;;7.47;2.83;;;12.90;99.90;;;;;;5075187;28;20198;-59
2022/06/28 04:58:43;;;;;;;6.07;2.80;;;13.00;99.90;;;;;;5078595;28;20192;-60
2022/06/28 05:01:12;;;;;;;3.93;2.70;;;13.10;99.90;;;;;;5071484;28;20265;-59
2022/06/28 05:03:42;;;;;;;5.03;2.40;;;13.20;99.90;;;;;;5070899;28;20200;-59
2022/06/28 05:06:11;;;;;;;5.53;2.50;;;13.30;99.90;;;;;;5074767;28;20211;-59
2022/06/28 05:08:40;;;;;;;7.63;3.13;;;13.40;99.90;;;;;;5078130;28;20200;-59
2022/06/28 05:11:09;;;;;;;6.40;2.90;;;13.50;99.90;;;;;;5075410;28;20231;-59
2022/06/28 05:13:38;;;;;;;7.43;2.60;;;13.50;99.90;;;;;;5074683;28;20183;-59
2022/06/28 05:16:09;;;;;;;4.43;2.80;;;13.60;99.90;;;;;;5068049;28;20278;-59
2022/06/28 05:18:37;;;;;;;3.37;2.70;;;13.70;99.90;;;;;;5074731;28;20524;-59
2022/06/28 05:21:06;;;;;;;8.90;2.47;;;13.90;99.90;;;;;;5063068;28;20228;-59
2022/06/28 05:23:36;;;;;;;8.23;2.27;;;14.00;99.90;;;;;;5078031;28;20231;-59
2022/06/28 05:26:05;;;;;;;5.87;2.40;;;14.10;99.90;;;;;;5075336;28;20269;-59
2022/06/28 05:28:39;;;;;;;2.33;1.87;;;14.30;99.90;;;;;;5078006;28;20203;-59
2022/06/28 05:31:10;;;;;;;8.97;2.73;;;14.40;99.90;;;;;;5093785;28;20200;-59
2022/06/28 05:33:38;;;;;;;4.97;2.17;;;14.50;99.90;;;;;;5075537;28;20233;-59
2022/06/28 05:36:06;;;;;;;3.70;2.20;;;14.60;99.90;;;;;;5076448;28;20282;-59
2022/06/28 05:38:35;;;;;;;8.10;2.43;;;14.70;99.90;;;;;;5072710;28;20224;-59
2022/06/28 05:41:03;;;;;;;5.90;2.00;;;14.70;99.90;;;;;;5072101;28;20197;-60
2022/06/28 05:43:31;;;;;;;10.33;2.23;;;14.80;99.90;;;;;;5077243;28;20191;-59
2022/06/28 05:46:00;;;;;;;9.07;2.20;;;14.80;99.90;;;;;;5070693;28;20302;-59
2022/06/28 05:48:29;;;;;;;6.17;2.10;;;14.90;99.90;;;;;;5072976;28;20196;-59
2022/06/28 05:50:57;;;;;;;5.07;2.37;;;15.00;99.90;;;;;;5076713;28;20298;-60
2022/06/28 05:53:26;;;;;;;6.40;2.43;;;15.00;99.90;;;;;;5069973;28;20185;-60
2022/06/28 05:55:54;;;;;;;9.17;2.50;;;15.00;99.90;;;;;;5095067;28;20222;-60
2022/06/28 05:58:23;;;;;;;8.10;2.40;;;15.10;99.90;;;;;;5077539;28;20306;-59
2022/06/28 06:00:51;;;;;;;3.43;2.00;;;15.20;99.90;;;;;;5078209;28;20192;-60
2022/06/28 06:03:20;;;;;;;6.07;2.30;;;15.40;99.90;;;;;;5074032;28;20260;-60
2022/06/28 06:05:49;;;;;;;11.30;2.47;;;15.40;99.90;;;;;;5076419;28;20619;-60
2022/06/28 06:08:18;;;;;;;7.03;2.33;;;15.50;99.90;;;;;;5072265;28;20283;-59
2022/06/28 06:10:46;;;;;;;4.03;1.93;;;15.50;99.90;;;;;;5070375;28;20185;-59
2022/06/28 06:13:15;;;;;;;7.80;2.27;;;15.70;99.90;;;;;;5075036;28;20224;-60
2022/06/28 06:15:44;;;;;;;9.93;2.47;;;16.00;99.90;;;;;;5070889;28;20196;-60
2022/06/28 06:18:12;;;;;;;10.00;2.03;;;16.00;99.90;;;;;;5068831;28;20221;-60
2022/06/28 06:20:40;;;;;;;11.50;2.30;;;16.00;99.90;;;;;;5070096;28;20206;-60
2022/06/28 06:23:10;;;;;;;6.10;2.07;;;16.10;99.90;;;;;;5072246;28;20199;-60
2022/06/28 06:25:39;;;;;;;14.23;2.17;;;16.40;99.90;;;;;;5072894;28;20204;-60
2022/06/28 06:28:07;;;;;;;5.47;2.40;;;16.40;99.90;;;;;;5072324;28;20624;-60
2022/06/28 06:30:36;;;;;;;12.17;2.10;;;16.50;99.90;;;;;;5069012;28;20195;-60
2022/06/28 06:33:04;;;;;;;5.73;1.73;;;16.60;99.90;;;;;;5074465;28;20325;-61
2022/06/28 06:35:33;;;;;;;6.33;2.27;;;16.80;99.90;;;;;;5074777;28;20189;-61
2022/06/28 06:38:01;;;;;;;12.57;2.37;;;16.60;99.90;;;;;;5075051;28;20275;-61
2022/06/28 06:40:31;;;;;;;7.27;2.00;;;16.80;99.90;;;;;;5072425;28;20242;-61
2022/06/28 06:43:00;;;;;;;8.23;2.23;;;16.80;99.90;;;;;;5072918;28;20242;-66
2022/06/28 06:45:29;;;;;;;4.83;1.80;;;17.00;99.90;;;;;;5073237;28;20278;-61
2022/06/28 06:47:57;;;;;;;3.67;1.53;;;17.30;99.90;;;;;;5069815;28;20223;-61
2022/06/28 06:50:26;;;;;;;5.93;1.60;;;17.40;99.90;;;;;;5075033;28;20287;-60
2022/06/28 06:52:55;;;;;;;5.53;1.77;;;17.30;99.90;;;;;;5071803;28;20216;-60
2022/06/28 06:55:23;;;;;;;3.57;1.80;;;17.60;99.90;;;;;;5073121;28;20197;-61
2022/06/28 06:57:52;;;;;;;4.60;2.00;;;17.60;99.90;;;;;;5071722;28;20632;-61
2022/06/28 07:00:21;;;;;;;11.97;1.90;;;17.70;99.90;;;;;;5074076;28;20232;-61
2022/06/28 07:02:49;;;;;;;6.77;1.70;;;17.70;99.90;;;;;;5070388;28;20363;-61
2022/06/28 07:05:18;;;;;;;6.13;1.90;;;17.50;99.90;;;;;;5074902;28;20192;-61
2022/06/28 07:07:47;;;;;;;7.30;1.43;;;17.50;99.90;;;;;;5063681;28;20209;-61
2022/06/28 07:10:15;;;;;;;2.70;1.53;;;17.70;99.90;;;;;;5075141;28;20730;-61
2022/06/28 07:12:46;;;;;;;5.17;1.80;;;17.60;99.90;;;;;;5074446;28;20275;-61
2022/06/28 07:15:16;;;;;;;7.87;1.60;;;17.60;99.90;;;;;;5072136;28;20600;-63
2022/06/28 07:17:45;;;;;;;3.03;1.20;;;17.70;99.90;;;;;;5067775;28;20712;-62
2022/06/28 07:20:13;;;;;;;4.40;1.40;;;17.80;99.90;;;;;;5067832;28;20214;-62
2022/06/28 07:22:42;;;;;;;4.53;1.60;;;18.00;99.90;;;;;;5065118;28;20196;-63
2022/06/28 07:25:13;;;;;;;6.57;1.40;;;18.00;99.90;;;;;;5066877;28;20196;-62
2022/06/28 07:27:43;;;;;;;3.03;1.57;;;18.00;99.90;;;;;;5070067;28;20207;-63
2022/06/28 07:30:13;;;;;;;7.80;1.47;;;18.40;99.90;;;;;;5069931;28;20287;-62
2022/06/28 07:32:42;;;;;;;7.33;1.60;;;18.50;99.90;;;;;;5068933;28;20232;-62
2022/06/28 07:35:11;;;;;;;5.07;1.43;;;18.70;99.90;;;;;;5070710;28;20689;-62
2022/06/28 07:37:39;;;;;;;7.53;1.60;;;19.20;99.90;;;;;;5069072;28;20875;-63
2022/06/28 07:40:08;;;;;;;2.40;1.20;;;19.20;99.90;;;;;;5069447;28;20222;-63
2022/06/28 07:42:37;;;;;;;5.70;1.10;;;19.10;99.90;;;;;;5069851;28;20188;-62
2022/06/28 07:45:07;;;;;;;3.00;1.30;;;19.10;99.90;;;;;;5067849;28;20234;-63
2022/06/28 07:47:35;;;;;;;5.60;1.20;;;19.50;99.90;;;;;;5069662;28;20714;-62
2022/06/28 07:52:52;;;;;;;2.63;1.03;;;19.20;99.90;;;;;;5073961;28;20708;-60
2022/06/28 07:55:20;;;;;;;4.43;1.27;;;19.10;99.90;;;;;;5072769;28;20279;-60
2022/06/28 07:57:48;;;;;;;1.30;0.90;;;19.00;99.90;;;;;;5074242;28;20282;-60
2022/06/28 08:00:19;;;;;;;4.70;1.40;;;19.10;99.90;;;;;;5073575;28;20204;-59
2022/06/28 08:03:15;;;;;;;3.13;1.40;;;19.40;99.90;;;;;;5073705;28;20795;-60
2022/06/28 08:05:45;;;;;;;4.47;1.20;;;19.80;99.90;;;;;;5072882;28;20202;-59
2022/06/28 08:08:14;;;;;;;2.57;1.03;;;19.90;99.90;;;;;;5072392;28;20729;-60
2022/06/28 08:10:43;;;;;;;2.57;1.20;;;19.80;99.90;;;;;;5072286;28;20222;-59
2022/06/28 08:13:15;;;;;;;8.83;1.50;;;19.80;99.90;;;;;;5072689;28;20203;-59
2022/06/28 08:15:45;;;;;;;7.37;1.93;;;19.90;99.90;;;;;;5071894;28;20208;-60
2022/06/28 08:18:14;;;;;;;4.60;1.10;;;20.00;99.90;;;;;;5073610;28;20596;-60
2022/06/28 08:20:43;;;;;;;2.50;1.00;;;20.00;99.90;;;;;;5073881;28;20214;-60
2022/06/28 08:23:13;;;;;;;3.80;1.13;;;20.10;99.90;;;;;;5073620;28;20551;-59
2022/06/28 08:25:42;;;;;;;3.37;1.10;;;20.10;99.90;;;;;;5073685;28;20640;-59
2022/06/28 08:28:11;;;;;;;4.37;1.37;;;20.30;99.90;;;;;;5073453;28;20224;-60
2022/06/28 08:30:40;;;;;;;2.50;1.40;;;20.40;99.90;;;;;;5073258;28;20218;-60
2022/06/28 08:33:09;;;;;;;5.07;1.00;;;20.50;99.90;;;;;;5073476;28;20249;-60
2022/06/28 08:35:38;;;;;;;4.67;1.43;;;20.80;99.90;;;;;;5072179;28;20286;-59
2022/06/28 08:38:07;;;;;;;3.83;1.10;;;20.70;99.90;;;;;;5055423;28;20223;-60
2022/06/28 08:40:37;;;;;;;2.87;1.17;;;20.80;99.90;;;;;;5073513;28;20192;-60
2022/06/28 08:43:07;;;;;;;1.57;1.13;;;20.80;99.90;;;;;;5073833;28;20188;-60
2022/06/28 08:45:37;;;;;;;1.60;1.30;;;20.70;99.90;;;;;;5073790;28;20221;-60
2022/06/28 08:48:14;;;;;;;4.13;1.10;;;20.70;99.90;;;;;;5073206;28;20244;-60
2022/06/28 08:50:45;;;;;;;1.47;1.03;;;20.80;99.90;;;;;;5073343;28;20213;-60
2022/06/28 08:53:15;;;;;;;2.20;1.33;;;20.90;99.90;;;;;;5073427;28;20191;-60
2022/06/28 08:55:45;;;;;;;4.50;1.10;;;21.00;99.90;;;;;;5073433;28;20220;-60
2022/06/28 08:58:13;;;;;;;1.93;1.10;;;20.80;99.90;;;;;;5071414;28;20194;-59
2022/06/28 09:00:42;;;;;;;1.23;1.07;;;21.00;99.90;;;;;;5073365;28;20686;-61
2022/06/28 09:03:18;;;;;;;1.83;0.80;;;21.20;99.90;;;;;;5073486;28;20285;-60
2022/06/28 09:05:47;;;;;;;3.47;1.13;;;21.20;99.90;;;;;;5072345;28;20231;-60
2022/06/28 09:08:15;;;;;;;5.30;1.17;;;21.20;99.90;;;;;;5071811;28;20655;-60
2022/06/28 09:10:47;;;;;;;3.30;1.03;;;21.20;99.90;;;;;;5073105;28;20255;-60
2022/06/28 09:13:20;;;;;;;1.73;1.07;;;21.40;99.90;;;;;;5073146;28;20223;-60
2022/06/28 09:15:54;;;;;;;2.53;1.27;;;21.40;99.90;;;;;;5073128;28;20200;-60
2022/06/28 09:18:24;;;;;;;2.27;1.00;;;21.50;99.90;;;;;;5073617;28;20678;-60
2022/06/28 09:20:54;;;;;;;3.33;1.20;;;21.70;99.90;;;;;;5053497;28;20273;-59
2022/06/28 09:23:28;;;;;;;6.43;1.30;;;21.90;99.90;;;;;;5063420;28;20216;-60
2022/06/28 09:26:06;;;;;;;2.00;1.10;;;22.10;99.90;;;;;;5072348;28;20247;-60
2022/06/28 09:28:39;;;;;;;1.67;0.97;;;22.20;99.90;;;;;;5072795;28;20706;-58
2022/06/28 09:31:15;;;;;;;1.80;1.20;;;22.20;99.90;;;;;;5073039;28;20590;-59
2022/06/28 09:33:45;;;;;;;2.60;1.30;;;22.20;99.90;;;;;;5073008;28;20200;-60
2022/06/28 09:36:15;;;;;;;3.03;1.10;;;22.20;99.90;;;;;;5073263;28;20227;-59
2022/06/28 09:38:44;;;;;;;2.93;1.00;;;22.10;99.90;;;;;;5059661;28;20213;-60
2022/06/28 09:41:25;;;;;;;3.90;1.53;;;22.10;99.90;;;;;;5051896;28;20244;-59
2022/06/28 09:43:56;;;;;;;3.60;1.37;;;22.10;99.90;;;;;;5056849;28;20242;-60
2022/06/28 09:46:26;;;;;;;2.17;1.30;;;22.20;99.90;;;;;;5056814;28;20273;-60
2022/06/28 09:49:00;;;;;;;2.60;1.57;;;22.30;99.90;;;;;;5073284;28;20216;-59
2022/06/28 09:51:30;;;;;;;3.77;1.07;;;22.40;99.90;;;;;;5071895;28;20197;-59
2022/06/28 09:54:02;;;;;;;5.40;1.50;;;22.30;99.90;;;;;;5056280;28;20208;-60
2022/06/28 09:56:53;;;;;;;4.47;1.30;;;22.60;99.90;;;;;;5056404;28;20346;-60
2022/06/28 09:59:23;;;;;;;3.37;1.43;;;22.80;99.90;;;;;;5071416;28;20230;-58
2022/06/28 10:01:54;;;;;;;4.10;1.40;;;23.00;99.90;;;;;;5060418;28;20317;-60
2022/06/28 10:04:24;;;;;;;2.97;1.20;;;23.20;99.90;;;;;;5088615;28;20192;-61
2022/06/28 10:06:52;;;;;;;5.13;1.47;;;23.20;99.90;;;;;;5076101;28;20272;-58
2022/06/28 10:09:22;;;;;;;3.47;1.27;;;23.40;99.90;;;;;;5074954;28;20258;-59
2022/06/28 10:17:50;;;;;;;1.10;1.00;;;23.40;99.90;;;;;;5074502;28;20191;-60
2022/06/28 10:20:22;;;;;;;3.93;1.40;;;23.50;99.90;;;;;;5058777;28;20202;-60
2022/06/28 10:22:51;;;;;;;1.77;1.40;;;23.60;99.90;;;;;;5055740;28;20297;-60
2022/06/28 10:25:26;;;;;;;1.17;1.03;;;23.70;99.90;;;;;;5055850;28;20198;-59
2022/06/28 10:27:56;;;;;;;1.70;1.57;;;24.10;99.90;;;;;;5055781;28;20247;-59
2022/06/28 10:30:27;;;;;;;4.10;1.33;;;24.20;99.90;;;;;;5058595;28;20221;-59
2022/06/28 10:33:01;;;;;;;2.90;1.20;;;24.40;99.90;;;;;;5075797;28;20188;-59
2022/06/28 10:36:13;;;;;;;2.70;1.40;;;24.50;99.90;;;;;;5075603;28;20202;-60
2022/06/28 10:39:11;;;;;;;2.03;1.20;;;24.60;99.90;;;;;;5073582;28;20263;-58
2022/06/28 10:41:41;;;;;;;2.83;1.50;;;24.60;99.90;;;;;;5066095;28;20266;-59
2022/06/28 10:44:13;;;;;;;2.20;1.30;;;24.50;99.90;;;;;;5071536;28;20223;-60
2022/06/28 10:46:42;;;;;;;4.17;1.47;;;24.40;99.90;;;;;;5074461;28;20286;-60
2022/06/28 10:49:12;;;;;;;8.23;1.60;;;24.50;99.90;;;;;;5075396;28;20299;-59
2022/06/28 10:52:11;;;;;;;1.70;1.53;;;24.60;99.90;;;;;;5066551;28;20270;-59
2022/06/28 10:54:40;;;;;;;1.60;1.30;;;25.00;99.90;;;;;;5056717;28;20211;-60
2022/06/28 10:57:22;;;;;;;4.17;1.30;;;25.10;99.90;;;;;;5071032;28;20242;-59
2022/06/28 10:59:55;;;;;;;3.53;1.37;;;25.10;99.90;;;;;;5070053;28;20223;-59
2022/06/28 11:02:24;;;;;;;2.33;1.30;;;25.10;99.90;;;;;;5090735;28;20326;-60
2022/06/28 11:05:06;;;;;;;2.70;1.17;;;24.80;99.90;;;;;;5075132;28;20257;-60
2022/06/28 11:07:35;;;;;;;2.50;1.30;;;24.70;99.90;;;;;;5075176;28;20659;-60
2022/06/28 11:10:11;;;;;;;1.97;1.00;;;24.90;99.90;;;;;;5073441;28;20335;-59
2022/06/28 11:12:41;;;;;;;3.53;1.47;;;25.10;99.90;;;;;;5074991;28;20208;-59
2022/06/28 11:15:13;;;;;;;3.33;1.50;;;25.30;99.90;;;;;;5075407;28;20283;-60
2022/06/28 11:17:43;;;;;;;2.07;1.27;;;25.40;99.90;;;;;;5073753;28;20188;-59
2022/06/28 11:20:49;;;;;;;2.07;1.23;;;25.40;99.90;;;;;;5075251;28;20267;-60
2022/06/28 11:23:26;;;;;;;5.10;1.40;;;25.50;99.90;;;;;;5074716;28;20278;-60
2022/06/28 11:28:57;;;;;;;1.23;1.20;;;25.80;99.90;;;;;;5054854;28;20204;-60
2022/06/28 11:31:31;;;;;;;2.53;1.40;;;25.60;99.90;;;;;;5054884;28;20244;-60
2022/06/28 11:34:01;;;;;;;2.67;1.40;;;25.70;99.90;;;;;;5054124;28;20197;-60
2022/06/28 11:36:31;;;;;;;6.90;1.20;;;25.80;99.90;;;;;;5054757;28;20269;-60
2022/06/28 11:39:16;;;;;;;1.90;1.47;;;25.80;99.90;;;;;;5068675;28;20643;-60
2022/06/28 11:41:48;;;;;;;1.87;1.40;;;25.60;99.90;;;;;;5074559;28;20310;-60
2022/06/28 11:44:18;;;;;;;3.60;1.53;;;25.50;99.90;;;;;;5067369;28;20196;-59
2022/06/28 11:46:49;;;;;;;9.17;1.60;;;25.60;99.90;;;;;;5072186;28;20513;-62
2022/06/28 11:49:27;;;;;;;4.47;1.27;;;25.60;99.90;;;;;;5074221;28;20243;-59
2022/06/28 11:51:55;;;;;;;2.70;1.40;;;25.80;99.90;;;;;;5074350;28;20678;-62
2022/06/28 11:54:25;;;;;;;2.13;1.50;;;25.70;99.90;;;;;;5074217;28;20623;-62
2022/06/28 11:56:54;;;;;;;2.70;1.77;;;25.60;99.90;;;;;;5089686;28;20194;-62
2022/06/28 11:59:56;;;;;;;1.40;1.10;;;25.30;99.90;;;;;;5074276;28;20218;-61
2022/06/28 12:02:40;;;;;;;2.90;1.30;;;24.80;99.90;;;;;;5053798;28;20238;-60
2022/06/28 12:05:09;;;;;;;2.27;1.30;;;24.50;99.90;;;;;;5053404;28;20191;-60
2022/06/28 12:08:03;;;;;;;2.40;1.50;;;24.00;99.90;;;;;;5061430;28;20213;-61
2022/06/28 12:10:33;;;;;;;2.33;1.30;;;23.70;99.90;;;;;;5073798;28;20269;-62
2022/06/28 12:13:11;;;;;;;5.27;1.43;;;23.60;99.90;;;;;;5073778;28;20221;-62
2022/06/28 12:15:40;;;;;;;4.83;1.60;;;23.80;99.90;;;;;;5073902;28;20197;-61
2022/06/28 12:18:10;;;;;;;3.70;1.40;;;24.00;99.90;;;;;;5073958;28;20629;-60
2022/06/28 12:20:54;;;;;;;3.57;1.20;;;24.20;99.90;;;;;;5074030;28;20274;-59
2022/06/28 12:23:23;;;;;;;2.70;1.70;;;24.50;99.90;;;;;;5073558;28;20198;-60
2022/06/28 12:26:00;;;;;;;2.63;1.20;;;24.80;99.90;;;;;;5072561;28;20192;-61
2022/06/28 12:28:29;;;;;;;3.03;1.63;;;25.00;99.90;;;;;;5072383;28;20243;-64
2022/06/28 12:30:57;;;;;;;7.47;1.40;;;25.20;99.90;;;;;;5072452;28;20392;-59
2022/06/28 12:33:27;;;;;;;1.50;1.33;;;25.40;99.90;;;;;;5071487;28;20285;-61
2022/06/28 12:35:55;;;;;;;1.43;1.33;;;25.60;99.90;;;;;;5073762;28;20319;-60
2022/06/28 12:38:24;;;;;;;2.23;1.23;;;25.60;99.90;;;;;;5073583;28;20278;-60
2022/06/28 12:40:52;;;;;;;1.63;1.30;;;25.70;99.90;;;;;;5073447;28;20240;-61
2022/06/28 12:43:21;;;;;;;1.73;1.30;;;25.60;99.90;;;;;;5073131;28;20741;-60
2022/06/28 12:45:49;;;;;;;3.07;1.73;;;25.60;99.90;;;;;;5072478;28;20229;-58
2022/06/28 12:48:17;;;;;;;1.63;1.40;;;25.20;99.90;;;;;;5071004;28;20635;-60
2022/06/28 12:50:55;;;;;;;1.93;1.70;;;24.90;99.90;;;;;;5070480;28;20209;-59
2022/06/28 12:53:23;;;;;;;3.50;1.70;;;24.90;99.90;;;;;;5068550;28;20279;-59
2022/06/28 12:56:10;;;;;;;7.43;1.60;;;25.00;99.90;;;;;;5071945;28;20191;-59
2022/06/28 12:58:40;;;;;;;2.33;1.70;;;25.30;99.90;;;;;;5073039;28;20228;-60
2022/06/28 13:01:09;;;;;;;2.83;1.30;;;25.40;99.90;;;;;;5067934;28;20730;-59
2022/06/28 13:03:37;;;;;;;4.20;1.80;;;25.30;99.90;;;;;;5062062;28;20217;-59
2022/06/28 13:06:07;;;;;;;1.97;1.73;;;25.00;99.90;;;;;;5073108;28;20306;-59
2022/06/28 13:08:36;;;;;;;3.80;1.70;;;25.00;99.90;;;;;;5071305;28;20189;-59
2022/06/28 13:11:04;;;;;;;4.53;1.80;;;25.10;99.90;;;;;;5072794;28;20228;-60
2022/06/28 13:13:33;;;;;;;3.70;1.43;;;25.20;99.90;;;;;;5064036;28;20595;-60
2022/06/28 13:16:02;;;;;;;3.00;1.60;;;25.20;99.90;;;;;;5069926;28;20320;-60
2022/06/28 13:19:01;;;;;;;5.90;1.70;;;25.20;99.90;;;;;;5076478;28;20202;-60
2022/06/28 13:21:31;;;;;;;3.87;1.33;;;25.20;99.90;;;;;;5072014;28;20265;-60
2022/06/28 13:24:42;;;;;;;3.30;1.53;;;25.30;99.90;;;;;;5092458;28;20580;-59